sensor_id;sensor_type;location;lat;lon;timestamp;P1;durP1;ratioP1;P2;durP2;ratioP2
74158;SDS011;62511;47.970;11.774;2023-07-16T00:01:52;3.72;;;2.95;;
74158;SDS011;62511;47.970;11.774;2023-07-16T00:04:18;4.35;;;3.17;;
74158;SDS011;62511;47.970;11.774;2023-07-16T00:06:44;4.63;;;2.80;;
74158;SDS011;62511;47.970;11.774;2023-07-16T00:09:10;5.25;;;3.55;;
74158;SDS011;62511;47.970;11.774;2023-07-16T00:11:36;4.18;;;2.60;;
74158;SDS011;62511;47.970;11.774;2023-07-16T00:14:02;4.45;;;3.03;;
74158;SDS011;62511;47.970;11.774;2023-07-16T00:16:29;6.00;;;3.08;;
74158;SDS011;62511;47.970;11.774;2023-07-16T00:18:55;4.25;;;3.05;;
74158;SDS011;62511;47.970;11.774;2023-07-16T00:21:21;3.65;;;2.50;;
74158;SDS011;62511;47.970;11.774;2023-07-16T00:23:47;4.10;;;2.50;;
74158;SDS011;62511;47.970;11.774;2023-07-16T00:26:13;3.47;;;2.63;;
74158;SDS011;62511;47.970;11.774;2023-07-16T00:28:39;3.20;;;2.70;;
74158;SDS011;62511;47.970;11.774;2023-07-16T00:31:05;5.70;;;2.55;;
74158;SDS011;62511;47.970;11.774;2023-07-16T00:33:31;5.75;;;2.97;;
74158;SDS011;62511;47.970;11.774;2023-07-16T00:35:57;5.63;;;2.97;;
74158;SDS011;62511;47.970;11.774;2023-07-16T00:38:23;3.92;;;3.00;;
74158;SDS011;62511;47.970;11.774;2023-07-16T00:40:49;3.70;;;2.83;;
74158;SDS011;62511;47.970;11.774;2023-07-16T00:43:15;3.58;;;3.10;;
74158;SDS011;62511;47.970;11.774;2023-07-16T00:45:41;6.55;;;2.97;;
74158;SDS011;62511;47.970;11.774;2023-07-16T00:48:10;5.47;;;3.10;;
74158;SDS011;62511;47.970;11.774;2023-07-16T00:50:37;6.47;;;3.25;;
74158;SDS011;62511;47.970;11.774;2023-07-16T00:53:07;5.72;;;3.15;;
74158;SDS011;62511;47.970;11.774;2023-07-16T00:55:33;4.93;;;3.30;;
74158;SDS011;62511;47.970;11.774;2023-07-16T00:58:04;6.65;;;3.20;;
74158;SDS011;62511;47.970;11.774;2023-07-16T01:00:31;5.70;;;2.85;;
74158;SDS011;62511;47.970;11.774;2023-07-16T01:02:57;5.18;;;2.97;;
74158;SDS011;62511;47.970;11.774;2023-07-16T01:05:23;6.05;;;3.30;;
74158;SDS011;62511;47.970;11.774;2023-07-16T01:07:55;5.55;;;3.17;;
74158;SDS011;62511;47.970;11.774;2023-07-16T01:10:22;7.25;;;3.05;;
74158;SDS011;62511;47.970;11.774;2023-07-16T01:12:49;3.78;;;3.10;;
74158;SDS011;62511;47.970;11.774;2023-07-16T01:15:16;4.45;;;3.05;;
74158;SDS011;62511;47.970;11.774;2023-07-16T01:17:42;12.85;;;3.50;;
74158;SDS011;62511;47.970;11.774;2023-07-16T01:20:08;5.90;;;3.47;;
74158;SDS011;62511;47.970;11.774;2023-07-16T01:22:43;4.65;;;3.33;;
74158;SDS011;62511;47.970;11.774;2023-07-16T01:28:04;7.88;;;2.97;;
74158;SDS011;62511;47.970;11.774;2023-07-16T01:30:31;3.35;;;2.83;;
74158;SDS011;62511;47.970;11.774;2023-07-16T01:32:57;4.97;;;3.60;;
74158;SDS011;62511;47.970;11.774;2023-07-16T01:35:24;4.15;;;2.83;;
74158;SDS011;62511;47.970;11.774;2023-07-16T01:37:51;4.47;;;3.42;;
74158;SDS011;62511;47.970;11.774;2023-07-16T01:40:17;4.70;;;3.17;;
74158;SDS011;62511;47.970;11.774;2023-07-16T01:42:43;5.60;;;2.95;;
74158;SDS011;62511;47.970;11.774;2023-07-16T01:45:09;4.80;;;3.20;;
74158;SDS011;62511;47.970;11.774;2023-07-16T01:50:16;5.55;;;3.08;;
74158;SDS011;62511;47.970;11.774;2023-07-16T01:52:42;5.05;;;3.55;;
74158;SDS011;62511;47.970;11.774;2023-07-16T01:55:08;7.55;;;3.72;;
74158;SDS011;62511;47.970;11.774;2023-07-16T01:57:34;7.15;;;3.60;;
74158;SDS011;62511;47.970;11.774;2023-07-16T02:00:00;7.70;;;3.70;;
74158;SDS011;62511;47.970;11.774;2023-07-16T02:02:28;5.35;;;3.60;;
74158;SDS011;62511;47.970;11.774;2023-07-16T02:04:54;7.03;;;3.90;;
74158;SDS011;62511;47.970;11.774;2023-07-16T02:07:20;4.93;;;3.63;;
74158;SDS011;62511;47.970;11.774;2023-07-16T02:09:46;3.88;;;2.92;;
74158;SDS011;62511;47.970;11.774;2023-07-16T02:12:12;8.50;;;4.00;;
74158;SDS011;62511;47.970;11.774;2023-07-16T02:14:38;6.25;;;3.30;;
74158;SDS011;62511;47.970;11.774;2023-07-16T02:17:04;4.82;;;3.72;;
74158;SDS011;62511;47.970;11.774;2023-07-16T02:19:30;5.35;;;3.50;;
74158;SDS011;62511;47.970;11.774;2023-07-16T02:21:56;6.45;;;3.60;;
74158;SDS011;62511;47.970;11.774;2023-07-16T02:24:22;6.15;;;3.35;;
74158;SDS011;62511;47.970;11.774;2023-07-16T02:26:48;6.22;;;3.58;;
74158;SDS011;62511;47.970;11.774;2023-07-16T02:29:14;4.32;;;3.30;;
74158;SDS011;62511;47.970;11.774;2023-07-16T02:31:40;6.43;;;3.60;;
74158;SDS011;62511;47.970;11.774;2023-07-16T02:34:09;5.75;;;3.13;;
74158;SDS011;62511;47.970;11.774;2023-07-16T02:36:35;4.03;;;3.28;;
74158;SDS011;62511;47.970;11.774;2023-07-16T02:39:01;3.63;;;3.25;;
74158;SDS011;62511;47.970;11.774;2023-07-16T02:41:28;3.75;;;2.70;;
74158;SDS011;62511;47.970;11.774;2023-07-16T02:44:01;4.55;;;3.05;;
74158;SDS011;62511;47.970;11.774;2023-07-16T02:46:27;4.25;;;3.15;;
74158;SDS011;62511;47.970;11.774;2023-07-16T02:48:53;6.10;;;3.05;;
74158;SDS011;62511;47.970;11.774;2023-07-16T02:51:19;5.88;;;3.30;;
74158;SDS011;62511;47.970;11.774;2023-07-16T02:53:45;4.40;;;3.50;;
74158;SDS011;62511;47.970;11.774;2023-07-16T02:56:11;4.43;;;3.30;;
74158;SDS011;62511;47.970;11.774;2023-07-16T02:58:37;4.65;;;3.28;;
74158;SDS011;62511;47.970;11.774;2023-07-16T03:01:03;6.68;;;3.38;;
74158;SDS011;62511;47.970;11.774;2023-07-16T03:03:29;4.80;;;3.28;;
74158;SDS011;62511;47.970;11.774;2023-07-16T03:05:55;3.47;;;2.85;;
74158;SDS011;62511;47.970;11.774;2023-07-16T03:08:21;4.57;;;3.10;;
74158;SDS011;62511;47.970;11.774;2023-07-16T03:10:51;3.92;;;2.85;;
74158;SDS011;62511;47.970;11.774;2023-07-16T03:13:17;4.90;;;3.08;;
74158;SDS011;62511;47.970;11.774;2023-07-16T03:15:44;5.13;;;3.00;;
74158;SDS011;62511;47.970;11.774;2023-07-16T03:18:10;4.43;;;3.00;;
74158;SDS011;62511;47.970;11.774;2023-07-16T03:20:36;5.10;;;3.50;;
74158;SDS011;62511;47.970;11.774;2023-07-16T03:23:02;6.03;;;3.28;;
74158;SDS011;62511;47.970;11.774;2023-07-16T03:25:28;6.40;;;3.58;;
74158;SDS011;62511;47.970;11.774;2023-07-16T03:27:54;4.60;;;3.17;;
74158;SDS011;62511;47.970;11.774;2023-07-16T03:30:20;5.40;;;2.75;;
74158;SDS011;62511;47.970;11.774;2023-07-16T03:32:46;4.75;;;3.45;;
74158;SDS011;62511;47.970;11.774;2023-07-16T03:35:12;4.00;;;2.83;;
74158;SDS011;62511;47.970;11.774;2023-07-16T03:37:38;4.00;;;2.80;;
74158;SDS011;62511;47.970;11.774;2023-07-16T03:42:40;3.70;;;2.72;;
74158;SDS011;62511;47.970;11.774;2023-07-16T03:45:06;3.78;;;3.22;;
74158;SDS011;62511;47.970;11.774;2023-07-16T03:47:32;4.78;;;3.17;;
74158;SDS011;62511;47.970;11.774;2023-07-16T03:49:58;4.65;;;3.17;;
74158;SDS011;62511;47.970;11.774;2023-07-16T03:52:24;4.35;;;3.50;;
74158;SDS011;62511;47.970;11.774;2023-07-16T03:57:17;4.03;;;2.67;;
74158;SDS011;62511;47.970;11.774;2023-07-16T03:59:43;4.72;;;3.25;;
74158;SDS011;62511;47.970;11.774;2023-07-16T04:02:09;5.22;;;4.00;;
74158;SDS011;62511;47.970;11.774;2023-07-16T04:04:35;7.68;;;4.10;;
74158;SDS011;62511;47.970;11.774;2023-07-16T04:07:01;7.80;;;3.88;;
74158;SDS011;62511;47.970;11.774;2023-07-16T04:09:27;5.80;;;4.03;;
74158;SDS011;62511;47.970;11.774;2023-07-16T04:11:53;5.18;;;3.80;;
74158;SDS011;62511;47.970;11.774;2023-07-16T04:14:19;5.75;;;4.47;;
74158;SDS011;62511;47.970;11.774;2023-07-16T04:16:45;8.57;;;4.20;;
74158;SDS011;62511;47.970;11.774;2023-07-16T04:19:11;7.68;;;3.97;;
74158;SDS011;62511;47.970;11.774;2023-07-16T04:21:37;5.78;;;3.55;;
74158;SDS011;62511;47.970;11.774;2023-07-16T04:26:31;4.50;;;2.67;;
74158;SDS011;62511;47.970;11.774;2023-07-16T04:28:57;4.20;;;2.80;;
74158;SDS011;62511;47.970;11.774;2023-07-16T04:31:23;10.98;;;3.15;;
74158;SDS011;62511;47.970;11.774;2023-07-16T04:33:50;12.77;;;3.47;;
74158;SDS011;62511;47.970;11.774;2023-07-16T04:36:16;3.47;;;2.47;;
74158;SDS011;62511;47.970;11.774;2023-07-16T04:38:42;8.63;;;3.53;;
74158;SDS011;62511;47.970;11.774;2023-07-16T04:41:08;15.00;;;4.15;;
74158;SDS011;62511;47.970;11.774;2023-07-16T04:43:34;4.95;;;3.55;;
74158;SDS011;62511;47.970;11.774;2023-07-16T04:46:00;7.25;;;4.20;;
74158;SDS011;62511;47.970;11.774;2023-07-16T04:48:26;7.43;;;3.58;;
74158;SDS011;62511;47.970;11.774;2023-07-16T04:50:52;4.72;;;3.38;;
74158;SDS011;62511;47.970;11.774;2023-07-16T04:53:18;7.05;;;4.03;;
74158;SDS011;62511;47.970;11.774;2023-07-16T04:55:44;7.03;;;3.58;;
74158;SDS011;62511;47.970;11.774;2023-07-16T04:58:13;5.28;;;2.88;;
74158;SDS011;62511;47.970;11.774;2023-07-16T05:00:40;6.18;;;3.10;;
74158;SDS011;62511;47.970;11.774;2023-07-16T05:03:06;10.25;;;3.03;;
74158;SDS011;62511;47.970;11.774;2023-07-16T05:05:32;4.85;;;2.80;;
74158;SDS011;62511;47.970;11.774;2023-07-16T05:07:58;7.38;;;2.90;;
74158;SDS011;62511;47.970;11.774;2023-07-16T05:10:24;13.60;;;2.75;;
74158;SDS011;62511;47.970;11.774;2023-07-16T05:12:50;5.75;;;3.38;;
74158;SDS011;62511;47.970;11.774;2023-07-16T05:15:16;10.85;;;3.42;;
74158;SDS011;62511;47.970;11.774;2023-07-16T05:17:42;3.75;;;2.97;;
74158;SDS011;62511;47.970;11.774;2023-07-16T05:20:08;6.28;;;3.40;;
74158;SDS011;62511;47.970;11.774;2023-07-16T05:22:34;4.65;;;2.90;;
74158;SDS011;62511;47.970;11.774;2023-07-16T05:25:01;3.88;;;2.90;;
74158;SDS011;62511;47.970;11.774;2023-07-16T05:27:27;5.45;;;2.70;;
74158;SDS011;62511;47.970;11.774;2023-07-16T05:29:53;5.13;;;2.72;;
74158;SDS011;62511;47.970;11.774;2023-07-16T05:32:19;4.68;;;2.95;;
74158;SDS011;62511;47.970;11.774;2023-07-16T05:34:45;5.63;;;3.25;;
74158;SDS011;62511;47.970;11.774;2023-07-16T05:37:12;3.30;;;2.50;;
74158;SDS011;62511;47.970;11.774;2023-07-16T05:39:38;6.65;;;3.28;;
74158;SDS011;62511;47.970;11.774;2023-07-16T05:42:04;3.58;;;2.88;;
74158;SDS011;62511;47.970;11.774;2023-07-16T05:44:30;5.22;;;3.03;;
74158;SDS011;62511;47.970;11.774;2023-07-16T05:46:57;3.10;;;2.58;;
74158;SDS011;62511;47.970;11.774;2023-07-16T05:49:23;4.82;;;2.92;;
74158;SDS011;62511;47.970;11.774;2023-07-16T05:51:50;3.97;;;2.92;;
74158;SDS011;62511;47.970;11.774;2023-07-16T05:54:16;3.50;;;2.90;;
74158;SDS011;62511;47.970;11.774;2023-07-16T05:56:42;6.35;;;3.22;;
74158;SDS011;62511;47.970;11.774;2023-07-16T05:59:09;5.20;;;3.50;;
74158;SDS011;62511;47.970;11.774;2023-07-16T06:01:35;3.78;;;2.50;;
74158;SDS011;62511;47.970;11.774;2023-07-16T06:04:01;3.70;;;2.88;;
74158;SDS011;62511;47.970;11.774;2023-07-16T06:06:27;3.80;;;2.88;;
74158;SDS011;62511;47.970;11.774;2023-07-16T06:08:54;2.97;;;2.30;;
74158;SDS011;62511;47.970;11.774;2023-07-16T06:11:20;5.20;;;2.72;;
74158;SDS011;62511;47.970;11.774;2023-07-16T06:13:47;4.72;;;2.75;;
74158;SDS011;62511;47.970;11.774;2023-07-16T06:16:13;7.78;;;2.72;;
74158;SDS011;62511;47.970;11.774;2023-07-16T06:18:40;4.20;;;2.60;;
74158;SDS011;62511;47.970;11.774;2023-07-16T06:23:32;4.65;;;2.70;;
74158;SDS011;62511;47.970;11.774;2023-07-16T06:25:58;3.03;;;2.42;;
74158;SDS011;62511;47.970;11.774;2023-07-16T06:28:25;3.30;;;2.58;;
74158;SDS011;62511;47.970;11.774;2023-07-16T06:30:51;3.40;;;2.67;;
74158;SDS011;62511;47.970;11.774;2023-07-16T06:33:17;3.58;;;2.50;;
74158;SDS011;62511;47.970;11.774;2023-07-16T06:35:47;4.43;;;2.60;;
74158;SDS011;62511;47.970;11.774;2023-07-16T06:38:14;5.20;;;2.83;;
74158;SDS011;62511;47.970;11.774;2023-07-16T06:40:45;4.07;;;2.13;;
74158;SDS011;62511;47.970;11.774;2023-07-16T06:43:12;6.20;;;2.50;;
74158;SDS011;62511;47.970;11.774;2023-07-16T06:45:38;2.67;;;2.20;;
74158;SDS011;62511;47.970;11.774;2023-07-16T06:48:04;2.40;;;2.10;;
74158;SDS011;62511;47.970;11.774;2023-07-16T06:50:30;3.10;;;1.95;;
74158;SDS011;62511;47.970;11.774;2023-07-16T06:52:56;4.10;;;2.10;;
74158;SDS011;62511;47.970;11.774;2023-07-16T06:55:22;2.90;;;2.08;;
74158;SDS011;62511;47.970;11.774;2023-07-16T06:57:48;2.15;;;1.95;;
74158;SDS011;62511;47.970;11.774;2023-07-16T07:00:14;2.58;;;2.08;;
74158;SDS011;62511;47.970;11.774;2023-07-16T07:02:41;2.95;;;2.15;;
74158;SDS011;62511;47.970;11.774;2023-07-16T07:05:07;4.55;;;2.38;;
74158;SDS011;62511;47.970;11.774;2023-07-16T07:07:33;2.80;;;2.10;;
74158;SDS011;62511;47.970;11.774;2023-07-16T07:10:00;2.97;;;1.85;;
74158;SDS011;62511;47.970;11.774;2023-07-16T07:12:26;3.40;;;1.92;;
74158;SDS011;62511;47.970;11.774;2023-07-16T07:14:53;3.53;;;2.00;;
74158;SDS011;62511;47.970;11.774;2023-07-16T07:17:19;3.42;;;2.03;;
74158;SDS011;62511;47.970;11.774;2023-07-16T07:19:45;2.00;;;1.67;;
74158;SDS011;62511;47.970;11.774;2023-07-16T07:22:12;2.55;;;1.85;;
74158;SDS011;62511;47.970;11.774;2023-07-16T07:24:38;2.03;;;1.75;;
74158;SDS011;62511;47.970;11.774;2023-07-16T07:27:05;3.17;;;1.83;;
74158;SDS011;62511;47.970;11.774;2023-07-16T07:29:31;3.50;;;1.88;;
74158;SDS011;62511;47.970;11.774;2023-07-16T07:31:58;2.13;;;1.70;;
74158;SDS011;62511;47.970;11.774;2023-07-16T07:34:25;3.22;;;2.10;;
74158;SDS011;62511;47.970;11.774;2023-07-16T07:36:51;4.13;;;2.20;;
74158;SDS011;62511;47.970;11.774;2023-07-16T07:39:17;1.92;;;1.77;;
74158;SDS011;62511;47.970;11.774;2023-07-16T07:41:43;2.38;;;2.00;;
74158;SDS011;62511;47.970;11.774;2023-07-16T07:44:09;2.90;;;1.90;;
74158;SDS011;62511;47.970;11.774;2023-07-16T07:46:36;4.90;;;2.20;;
74158;SDS011;62511;47.970;11.774;2023-07-16T07:49:02;2.88;;;1.77;;
74158;SDS011;62511;47.970;11.774;2023-07-16T07:51:28;2.63;;;1.70;;
74158;SDS011;62511;47.970;11.774;2023-07-16T07:53:55;3.30;;;1.77;;
74158;SDS011;62511;47.970;11.774;2023-07-16T07:56:21;2.80;;;1.70;;
74158;SDS011;62511;47.970;11.774;2023-07-16T07:58:47;3.08;;;1.80;;
74158;SDS011;62511;47.970;11.774;2023-07-16T08:01:13;3.28;;;1.60;;
74158;SDS011;62511;47.970;11.774;2023-07-16T08:03:39;3.53;;;1.35;;
74158;SDS011;62511;47.970;11.774;2023-07-16T08:06:05;1.95;;;1.73;;
74158;SDS011;62511;47.970;11.774;2023-07-16T08:08:31;2.33;;;1.45;;
74158;SDS011;62511;47.970;11.774;2023-07-16T08:10:57;1.70;;;1.30;;
74158;SDS011;62511;47.970;11.774;2023-07-16T08:13:23;1.52;;;1.40;;
74158;SDS011;62511;47.970;11.774;2023-07-16T08:15:49;1.70;;;1.60;;
74158;SDS011;62511;47.970;11.774;2023-07-16T08:18:15;6.13;;;3.40;;
74158;SDS011;62511;47.970;11.774;2023-07-16T08:20:41;6.07;;;3.47;;
74158;SDS011;62511;47.970;11.774;2023-07-16T08:23:07;1.50;;;1.40;;
74158;SDS011;62511;47.970;11.774;2023-07-16T08:25:33;8.88;;;5.40;;
74158;SDS011;62511;47.970;11.774;2023-07-16T08:28:01;6.22;;;3.42;;
74158;SDS011;62511;47.970;11.774;2023-07-16T08:30:27;2.63;;;1.90;;
74158;SDS011;62511;47.970;11.774;2023-07-16T08:32:54;1.75;;;1.35;;
74158;SDS011;62511;47.970;11.774;2023-07-16T08:35:20;1.35;;;1.10;;
74158;SDS011;62511;47.970;11.774;2023-07-16T08:37:46;1.52;;;1.27;;
74158;SDS011;62511;47.970;11.774;2023-07-16T08:40:12;1.40;;;1.30;;
74158;SDS011;62511;47.970;11.774;2023-07-16T08:42:39;1.70;;;1.33;;
74158;SDS011;62511;47.970;11.774;2023-07-16T08:45:10;2.10;;;1.42;;
74158;SDS011;62511;47.970;11.774;2023-07-16T08:47:36;1.40;;;1.10;;
74158;SDS011;62511;47.970;11.774;2023-07-16T08:50:02;1.80;;;1.38;;
74158;SDS011;62511;47.970;11.774;2023-07-16T08:52:29;1.23;;;1.10;;
74158;SDS011;62511;47.970;11.774;2023-07-16T08:54:55;2.15;;;1.40;;
74158;SDS011;62511;47.970;11.774;2023-07-16T08:57:21;1.90;;;1.35;;
74158;SDS011;62511;47.970;11.774;2023-07-16T08:59:48;1.70;;;1.23;;
74158;SDS011;62511;47.970;11.774;2023-07-16T09:04:40;1.45;;;1.20;;
74158;SDS011;62511;47.970;11.774;2023-07-16T09:07:06;1.60;;;1.20;;
74158;SDS011;62511;47.970;11.774;2023-07-16T09:09:32;1.67;;;1.23;;
74158;SDS011;62511;47.970;11.774;2023-07-16T09:11:58;2.72;;;1.40;;
74158;SDS011;62511;47.970;11.774;2023-07-16T09:14:24;1.60;;;1.15;;
74158;SDS011;62511;47.970;11.774;2023-07-16T09:16:50;1.58;;;1.20;;
74158;SDS011;62511;47.970;11.774;2023-07-16T09:19:17;2.10;;;1.55;;
74158;SDS011;62511;47.970;11.774;2023-07-16T09:21:47;20.50;;;12.57;;
74158;SDS011;62511;47.970;11.774;2023-07-16T09:24:13;10.77;;;7.25;;
74158;SDS011;62511;47.970;11.774;2023-07-16T09:26:46;6.35;;;3.67;;
74158;SDS011;62511;47.970;11.774;2023-07-16T09:29:12;2.58;;;2.15;;
74158;SDS011;62511;47.970;11.774;2023-07-16T09:31:50;3.15;;;1.80;;
74158;SDS011;62511;47.970;11.774;2023-07-16T09:34:16;2.03;;;1.40;;
74158;SDS011;62511;47.970;11.774;2023-07-16T09:36:42;8.30;;;5.18;;
74158;SDS011;62511;47.970;11.774;2023-07-16T09:39:09;3.92;;;1.90;;
74158;SDS011;62511;47.970;11.774;2023-07-16T09:41:35;4.20;;;2.65;;
74158;SDS011;62511;47.970;11.774;2023-07-16T09:44:03;1.95;;;1.67;;
74158;SDS011;62511;47.970;11.774;2023-07-16T09:46:29;1.95;;;1.40;;
74158;SDS011;62511;47.970;11.774;2023-07-16T09:51:21;1.70;;;1.40;;
74158;SDS011;62511;47.970;11.774;2023-07-16T09:53:48;2.88;;;1.90;;
74158;SDS011;62511;47.970;11.774;2023-07-16T09:56:15;1.73;;;1.40;;
74158;SDS011;62511;47.970;11.774;2023-07-16T09:58:42;1.38;;;1.27;;
74158;SDS011;62511;47.970;11.774;2023-07-16T10:01:08;2.05;;;1.70;;
74158;SDS011;62511;47.970;11.774;2023-07-16T10:03:35;1.98;;;1.40;;
74158;SDS011;62511;47.970;11.774;2023-07-16T10:06:07;1.55;;;1.40;;
74158;SDS011;62511;47.970;11.774;2023-07-16T10:08:36;1.65;;;1.30;;
74158;SDS011;62511;47.970;11.774;2023-07-16T10:11:02;3.15;;;1.80;;
74158;SDS011;62511;47.970;11.774;2023-07-16T10:13:28;1.50;;;1.40;;
74158;SDS011;62511;47.970;11.774;2023-07-16T10:15:55;1.23;;;1.05;;
74158;SDS011;62511;47.970;11.774;2023-07-16T10:20:52;2.80;;;1.52;;
74158;SDS011;62511;47.970;11.774;2023-07-16T10:23:18;1.67;;;1.25;;
74158;SDS011;62511;47.970;11.774;2023-07-16T10:26:00;3.50;;;1.70;;
74158;SDS011;62511;47.970;11.774;2023-07-16T10:28:27;1.88;;;1.38;;
74158;SDS011;62511;47.970;11.774;2023-07-16T10:30:53;1.95;;;1.45;;
74158;SDS011;62511;47.970;11.774;2023-07-16T10:33:19;2.78;;;1.50;;
74158;SDS011;62511;47.970;11.774;2023-07-16T10:35:45;1.52;;;1.42;;
74158;SDS011;62511;47.970;11.774;2023-07-16T10:38:11;1.83;;;1.08;;
74158;SDS011;62511;47.970;11.774;2023-07-16T10:40:40;2.85;;;1.10;;
74158;SDS011;62511;47.970;11.774;2023-07-16T10:43:07;1.67;;;1.38;;
74158;SDS011;62511;47.970;11.774;2023-07-16T10:45:33;1.65;;;1.40;;
74158;SDS011;62511;47.970;11.774;2023-07-16T10:47:59;1.55;;;1.40;;
74158;SDS011;62511;47.970;11.774;2023-07-16T10:50:25;2.35;;;1.40;;
74158;SDS011;62511;47.970;11.774;2023-07-16T10:52:51;1.77;;;1.20;;
74158;SDS011;62511;47.970;11.774;2023-07-16T10:55:18;1.75;;;1.48;;
74158;SDS011;62511;47.970;11.774;2023-07-16T10:57:49;2.60;;;1.40;;
74158;SDS011;62511;47.970;11.774;2023-07-16T11:00:16;1.30;;;1.20;;
74158;SDS011;62511;47.970;11.774;2023-07-16T11:02:43;2.15;;;1.45;;
74158;SDS011;62511;47.970;11.774;2023-07-16T11:05:10;1.20;;;1.10;;
74158;SDS011;62511;47.970;11.774;2023-07-16T11:07:37;2.08;;;1.40;;
74158;SDS011;62511;47.970;11.774;2023-07-16T11:10:04;2.28;;;1.15;;
74158;SDS011;62511;47.970;11.774;2023-07-16T11:12:30;4.00;;;1.70;;
74158;SDS011;62511;47.970;11.774;2023-07-16T11:14:56;2.55;;;1.33;;
74158;SDS011;62511;47.970;11.774;2023-07-16T11:17:23;2.05;;;1.20;;
74158;SDS011;62511;47.970;11.774;2023-07-16T11:19:50;1.40;;;1.10;;
74158;SDS011;62511;47.970;11.774;2023-07-16T11:22:16;2.55;;;1.40;;
74158;SDS011;62511;47.970;11.774;2023-07-16T11:24:49;2.17;;;1.55;;
74158;SDS011;62511;47.970;11.774;2023-07-16T11:27:25;3.05;;;1.45;;
74158;SDS011;62511;47.970;11.774;2023-07-16T11:29:52;1.88;;;1.25;;
74158;SDS011;62511;47.970;11.774;2023-07-16T11:32:35;2.03;;;1.30;;
74158;SDS011;62511;47.970;11.774;2023-07-16T11:35:02;1.65;;;1.20;;
74158;SDS011;62511;47.970;11.774;2023-07-16T11:37:29;1.55;;;1.27;;
74158;SDS011;62511;47.970;11.774;2023-07-16T11:40:00;2.47;;;1.30;;
74158;SDS011;62511;47.970;11.774;2023-07-16T11:42:37;1.70;;;1.30;;
74158;SDS011;62511;47.970;11.774;2023-07-16T11:45:04;1.67;;;1.35;;
74158;SDS011;62511;47.970;11.774;2023-07-16T11:47:30;1.52;;;1.23;;
74158;SDS011;62511;47.970;11.774;2023-07-16T11:49:57;1.73;;;1.40;;
74158;SDS011;62511;47.970;11.774;2023-07-16T11:52:24;3.85;;;1.40;;
74158;SDS011;62511;47.970;11.774;2023-07-16T11:54:51;2.28;;;1.60;;
74158;SDS011;62511;47.970;11.774;2023-07-16T11:57:17;1.85;;;1.27;;
74158;SDS011;62511;47.970;11.774;2023-07-16T11:59:43;2.53;;;1.00;;
74158;SDS011;62511;47.970;11.774;2023-07-16T12:02:10;3.15;;;1.50;;
74158;SDS011;62511;47.970;11.774;2023-07-16T12:04:36;1.50;;;1.25;;
74158;SDS011;62511;47.970;11.774;2023-07-16T12:07:02;2.65;;;1.73;;
74158;SDS011;62511;47.970;11.774;2023-07-16T12:09:28;1.80;;;1.30;;
74158;SDS011;62511;47.970;11.774;2023-07-16T12:14:20;1.17;;;0.95;;
74158;SDS011;62511;47.970;11.774;2023-07-16T12:16:46;1.25;;;1.10;;
74158;SDS011;62511;47.970;11.774;2023-07-16T12:19:12;1.20;;;1.10;;
74158;SDS011;62511;47.970;11.774;2023-07-16T12:21:38;2.80;;;1.40;;
74158;SDS011;62511;47.970;11.774;2023-07-16T12:24:04;2.15;;;1.30;;
74158;SDS011;62511;47.970;11.774;2023-07-16T12:26:30;1.42;;;1.20;;
74158;SDS011;62511;47.970;11.774;2023-07-16T12:28:56;1.60;;;1.27;;
74158;SDS011;62511;47.970;11.774;2023-07-16T12:31:22;1.48;;;1.27;;
74158;SDS011;62511;47.970;11.774;2023-07-16T12:33:48;2.08;;;1.20;;
74158;SDS011;62511;47.970;11.774;2023-07-16T12:36:15;3.42;;;1.13;;
74158;SDS011;62511;47.970;11.774;2023-07-16T12:38:41;2.08;;;1.30;;
74158;SDS011;62511;47.970;11.774;2023-07-16T12:43:33;2.15;;;1.25;;
74158;SDS011;62511;47.970;11.774;2023-07-16T12:46:00;1.40;;;1.30;;
74158;SDS011;62511;47.970;11.774;2023-07-16T12:48:27;1.50;;;1.40;;
74158;SDS011;62511;47.970;11.774;2023-07-16T12:50:53;2.40;;;1.48;;
74158;SDS011;62511;47.970;11.774;2023-07-16T12:53:19;2.60;;;1.50;;
74158;SDS011;62511;47.970;11.774;2023-07-16T12:55:46;2.20;;;1.52;;
74158;SDS011;62511;47.970;11.774;2023-07-16T12:58:11;2.75;;;1.55;;
74158;SDS011;62511;47.970;11.774;2023-07-16T13:00:37;1.98;;;1.30;;
74158;SDS011;62511;47.970;11.774;2023-07-16T13:03:04;1.90;;;1.80;;
74158;SDS011;62511;47.970;11.774;2023-07-16T13:05:30;2.25;;;1.80;;
74158;SDS011;62511;47.970;11.774;2023-07-16T13:07:56;2.80;;;1.60;;
74158;SDS011;62511;47.970;11.774;2023-07-16T13:10:22;1.88;;;1.48;;
74158;SDS011;62511;47.970;11.774;2023-07-16T13:15:14;3.95;;;1.45;;
74158;SDS011;62511;47.970;11.774;2023-07-16T13:17:40;1.48;;;1.38;;
74158;SDS011;62511;47.970;11.774;2023-07-16T13:20:07;1.98;;;1.45;;
74158;SDS011;62511;47.970;11.774;2023-07-16T13:22:34;1.88;;;1.50;;
74158;SDS011;62511;47.970;11.774;2023-07-16T13:25:00;1.83;;;1.50;;
74158;SDS011;62511;47.970;11.774;2023-07-16T13:27:26;2.35;;;1.50;;
74158;SDS011;62511;47.970;11.774;2023-07-16T13:29:52;1.40;;;1.30;;
74158;SDS011;62511;47.970;11.774;2023-07-16T13:32:18;1.60;;;1.30;;
74158;SDS011;62511;47.970;11.774;2023-07-16T13:34:44;2.75;;;1.40;;
74158;SDS011;62511;47.970;11.774;2023-07-16T13:37:10;1.98;;;1.50;;
74158;SDS011;62511;47.970;11.774;2023-07-16T13:39:37;1.88;;;1.48;;
74158;SDS011;62511;47.970;11.774;2023-07-16T13:42:03;1.83;;;1.52;;
74158;SDS011;62511;47.970;11.774;2023-07-16T13:44:30;1.77;;;1.30;;
74158;SDS011;62511;47.970;11.774;2023-07-16T13:46:56;1.60;;;1.50;;
74158;SDS011;62511;47.970;11.774;2023-07-16T13:49:22;2.35;;;1.60;;
74158;SDS011;62511;47.970;11.774;2023-07-16T13:51:48;2.42;;;1.50;;
74158;SDS011;62511;47.970;11.774;2023-07-16T13:54:14;1.52;;;1.35;;
74158;SDS011;62511;47.970;11.774;2023-07-16T13:56:40;2.30;;;1.50;;
74158;SDS011;62511;47.970;11.774;2023-07-16T13:59:07;2.40;;;1.70;;
74158;SDS011;62511;47.970;11.774;2023-07-16T14:01:33;2.00;;;1.60;;
74158;SDS011;62511;47.970;11.774;2023-07-16T14:03:59;2.88;;;1.65;;
74158;SDS011;62511;47.970;11.774;2023-07-16T14:06:25;1.70;;;1.50;;
74158;SDS011;62511;47.970;11.774;2023-07-16T14:08:51;1.45;;;1.10;;
74158;SDS011;62511;47.970;11.774;2023-07-16T14:11:17;1.35;;;1.25;;
74158;SDS011;62511;47.970;11.774;2023-07-16T14:13:43;1.63;;;1.42;;
74158;SDS011;62511;47.970;11.774;2023-07-16T14:18:35;2.53;;;1.50;;
74158;SDS011;62511;47.970;11.774;2023-07-16T14:21:01;2.22;;;1.45;;
74158;SDS011;62511;47.970;11.774;2023-07-16T14:23:29;1.90;;;1.60;;
74158;SDS011;62511;47.970;11.774;2023-07-16T14:25:55;1.45;;;1.35;;
74158;SDS011;62511;47.970;11.774;2023-07-16T14:28:21;1.88;;;1.30;;
74158;SDS011;62511;47.970;11.774;2023-07-16T14:33:13;1.40;;;1.30;;
74158;SDS011;62511;47.970;11.774;2023-07-16T14:35:39;2.45;;;1.67;;
74158;SDS011;62511;47.970;11.774;2023-07-16T14:38:07;1.60;;;1.45;;
74158;SDS011;62511;47.970;11.774;2023-07-16T14:40:33;1.80;;;1.50;;
74158;SDS011;62511;47.970;11.774;2023-07-16T14:42:59;1.70;;;1.50;;
74158;SDS011;62511;47.970;11.774;2023-07-16T14:45:25;1.67;;;1.20;;
74158;SDS011;62511;47.970;11.774;2023-07-16T14:47:51;2.53;;;1.80;;
74158;SDS011;62511;47.970;11.774;2023-07-16T14:50:17;1.70;;;1.48;;
74158;SDS011;62511;47.970;11.774;2023-07-16T14:52:43;2.17;;;1.70;;
74158;SDS011;62511;47.970;11.774;2023-07-16T14:55:09;1.83;;;1.42;;
74158;SDS011;62511;47.970;11.774;2023-07-16T14:57:35;3.33;;;1.60;;
74158;SDS011;62511;47.970;11.774;2023-07-16T15:00:01;3.10;;;1.73;;
74158;SDS011;62511;47.970;11.774;2023-07-16T15:02:29;2.53;;;1.45;;
74158;SDS011;62511;47.970;11.774;2023-07-16T15:04:55;2.58;;;1.88;;